Evansville, AR (72729)

6:14 AM CDT on August 28, 2015 (GMT -0500)
KARPRAIR2 | | Change Station
CLOSE
Current Station
Personal Weather Station
Location: Prairie Grove, AR
Elevation: 1385 ft
Nearby Weather Stations

Elev 1385 ft 35.93 °N, 94.33 °W | Updated 12 minutes ago

Clear
Clear
64.2 °F
Feels Like 64.2 °F
N
0.0
Wind Variable Wind from NNW
Gusts 4.0 mph

Today
High -- | Low -- °F
--% Chance of Precip.
Yesterday
High -- | Low -- °F
Precip. -- in
6:46 AM 7:51 PM
Waxing Gibbous, 97% visible
Pressure 30.02 in
Visibility 10.0 miles
Clouds Clear
Dew Point 58 °F
Humidity 81%
Rainfall 0.00 in
Snow Depth Not available.
UV 0 out of 12
Pollen 8.90 out of 12
Air Quality Not available.
Flu Activity Not available.
METAR KFYV 281053Z 00000KT 10SM CLR 15/14 A3005 RMK AO2 SLP164 T01500144
Pressure 30.02 in
Visibility 10.0 miles
Clouds Clear
Dew Point 58 °F
Humidity 81%
Rainfall 0.00 in
Snow Depth Not available.
UV 0 out of 12
Pollen 8.90 out of 12
Air Quality Not available.
Flu Activity Not available.
METAR KFYV 281053Z 00000KT 10SM CLR 15/14 A3005 RMK AO2 SLP164 T01500144

10-Day Weather Forecast

×

Almanac

Astronomy

Aug. 28, 2015 Rise Set
Actual Time
Civil Twilight
Nautical Twilight
Astronomical Twilight
Moon
Length of Visible Light
Length of Day
Tomorrow will be .
, % of the Moon is Illuminated

Today's Extremes

State Highs State Lows

Community

WunderPhotos

Upload Photos

1,850,368 photos uploaded!

WunderBlogs® & News

Nearby

Air Quality

  Air Quality AQ Index Pollutant
Not available.

Snow Depth

Station Depth Elevation

Earthquake Activity

City Distance Mag. Time & Date
Minimum magnitude displayed is 2.5.

Coastal Water Temperatures

Place Temperature

Stations

Nearby Weather Stations

Station Location Temp. Windchill Dew Point Humidity Wind Precip. Elev Updated Type